sensor_id;sensor_type;location;lat;lon;timestamp;temperature;humidity
32506;DHT22;18955;51.224;8.482;2023-03-01T00:01:31;6.20;65.10
32506;DHT22;18955;51.224;8.482;2023-03-01T00:03:59;6.00;65.50
32506;DHT22;18955;51.224;8.482;2023-03-01T00:06:26;5.90;66.10
32506;DHT22;18955;51.224;8.482;2023-03-01T00:08:53;6.20;65.10
32506;DHT22;18955;51.224;8.482;2023-03-01T00:11:24;6.10;65.30
32506;DHT22;18955;51.224;8.482;2023-03-01T00:13:54;5.80;66.20
32506;DHT22;18955;51.224;8.482;2023-03-01T00:16:24;6.00;65.40
32506;DHT22;18955;51.224;8.482;2023-03-01T00:18:51;6.10;65.00
32506;DHT22;18955;51.224;8.482;2023-03-01T00:21:18;5.80;65.60
32506;DHT22;18955;51.224;8.482;2023-03-01T00:23:45;5.90;66.00
32506;DHT22;18955;51.224;8.482;2023-03-01T00:26:13;6.00;64.90
32506;DHT22;18955;51.224;8.482;2023-03-01T00:28:41;5.90;65.50
32506;DHT22;18955;51.224;8.482;2023-03-01T00:31:14;5.70;66.00
32506;DHT22;18955;51.224;8.482;2023-03-01T00:33:41;6.00;65.10
32506;DHT22;18955;51.224;8.482;2023-03-01T00:36:09;5.90;65.30
32506;DHT22;18955;51.224;8.482;2023-03-01T00:38:37;5.70;65.90
32506;DHT22;18955;51.224;8.482;2023-03-01T00:41:12;6.00;65.60
32506;DHT22;18955;51.224;8.482;2023-03-01T00:43:39;6.00;65.20
32506;DHT22;18955;51.224;8.482;2023-03-01T00:46:11;5.80;65.90
32506;DHT22;18955;51.224;8.482;2023-03-01T00:48:38;5.80;65.70
32506;DHT22;18955;51.224;8.482;2023-03-01T00:51:09;6.00;64.80
32506;DHT22;18955;51.224;8.482;2023-03-01T00:53:36;5.80;65.30
32506;DHT22;18955;51.224;8.482;2023-03-01T00:56:04;5.70;65.90
32506;DHT22;18955;51.224;8.482;2023-03-01T00:58:31;5.90;64.90
32506;DHT22;18955;51.224;8.482;2023-03-01T01:00:57;5.90;65.20
32506;DHT22;18955;51.224;8.482;2023-03-01T01:03:24;5.60;65.70
32506;DHT22;18955;51.224;8.482;2023-03-01T01:05:52;5.90;65.30
32506;DHT22;18955;51.224;8.482;2023-03-01T01:08:19;5.90;65.00
32506;DHT22;18955;51.224;8.482;2023-03-01T01:10:46;5.70;65.60
32506;DHT22;18955;51.224;8.482;2023-03-01T01:13:13;5.90;65.70
32506;DHT22;18955;51.224;8.482;2023-03-01T01:15:40;5.90;64.80
32506;DHT22;18955;51.224;8.482;2023-03-01T01:18:06;5.70;65.40
32506;DHT22;18955;51.224;8.482;2023-03-01T01:20:35;5.60;65.90
32506;DHT22;18955;51.224;8.482;2023-03-01T01:23:01;5.90;64.90
32506;DHT22;18955;51.224;8.482;2023-03-01T01:25:27;5.70;65.10
32506;DHT22;18955;51.224;8.482;2023-03-01T01:27:54;5.60;65.80
32506;DHT22;18955;51.224;8.482;2023-03-01T01:30:20;5.80;65.20
32506;DHT22;18955;51.224;8.482;2023-03-01T01:32:46;5.80;65.20
32506;DHT22;18955;51.224;8.482;2023-03-01T01:35:12;5.50;65.80
32506;DHT22;18955;51.224;8.482;2023-03-01T01:37:38;5.70;65.70
32506;DHT22;18955;51.224;8.482;2023-03-01T01:40:05;5.90;64.80
32506;DHT22;18955;51.224;8.482;2023-03-01T01:42:32;5.70;65.30
32506;DHT22;18955;51.224;8.482;2023-03-01T01:45:24;5.50;65.70
32506;DHT22;18955;51.224;8.482;2023-03-01T01:47:53;5.80;64.80
32506;DHT22;18955;51.224;8.482;2023-03-01T01:50:21;5.70;65.00
32506;DHT22;18955;51.224;8.482;2023-03-01T01:52:48;5.50;65.60
32506;DHT22;18955;51.224;8.482;2023-03-01T01:55:22;5.80;65.00
32506;DHT22;18955;51.224;8.482;2023-03-01T01:57:53;5.70;65.10
32506;DHT22;18955;51.224;8.482;2023-03-01T02:00:23;5.50;65.50
32506;DHT22;18955;51.224;8.482;2023-03-01T02:02:53;5.70;65.20
32506;DHT22;18955;51.224;8.482;2023-03-01T02:07:53;5.50;65.30
32506;DHT22;18955;51.224;8.482;2023-03-01T02:10:21;5.60;65.40
32506;DHT22;18955;51.224;8.482;2023-03-01T02:12:48;5.80;64.40
32506;DHT22;18955;51.224;8.482;2023-03-01T02:15:15;5.60;65.00
32506;DHT22;18955;51.224;8.482;2023-03-01T02:17:41;5.50;65.40
32506;DHT22;18955;51.224;8.482;2023-03-01T02:22:46;5.70;64.40
32506;DHT22;18955;51.224;8.482;2023-03-01T02:30:19;5.70;64.80
32506;DHT22;18955;51.224;8.482;2023-03-01T02:32:46;5.40;65.30
32506;DHT22;18955;51.224;8.482;2023-03-01T02:35:16;5.60;65.10
32506;DHT22;18955;51.224;8.482;2023-03-01T02:37:44;5.70;64.90
32506;DHT22;18955;51.224;8.482;2023-03-01T02:40:16;5.50;65.10
32506;DHT22;18955;51.224;8.482;2023-03-01T02:42:51;5.50;65.30
32506;DHT22;18955;51.224;8.482;2023-03-01T02:45:18;5.70;64.50
32506;DHT22;18955;51.224;8.482;2023-03-01T02:47:45;5.60;65.10
32506;DHT22;18955;51.224;8.482;2023-03-01T02:51:18;5.40;65.50
32506;DHT22;18955;51.224;8.482;2023-03-01T02:55:53;5.70;64.80
32506;DHT22;18955;51.224;8.482;2023-03-01T02:58:20;5.40;65.40
32506;DHT22;18955;51.224;8.482;2023-03-01T03:00:46;5.70;64.60
32506;DHT22;18955;51.224;8.482;2023-03-01T03:03:17;5.70;64.50
32506;DHT22;18955;51.224;8.482;2023-03-01T03:05:45;5.40;65.30
32506;DHT22;18955;51.224;8.482;2023-03-01T03:08:11;5.60;64.90
32506;DHT22;18955;51.224;8.482;2023-03-01T03:10:40;5.70;64.40
32506;DHT22;18955;51.224;8.482;2023-03-01T03:13:09;5.50;65.10
32506;DHT22;18955;51.224;8.482;2023-03-01T03:15:37;5.50;65.20
32506;DHT22;18955;51.224;8.482;2023-03-01T03:18:08;5.70;64.50
32506;DHT22;18955;51.224;8.482;2023-03-01T03:20:36;5.50;64.70
32506;DHT22;18955;51.224;8.482;2023-03-01T03:23:02;5.40;65.30
32506;DHT22;18955;51.224;8.482;2023-03-01T03:25:29;5.70;64.50
32506;DHT22;18955;51.224;8.482;2023-03-01T03:27:56;5.50;64.30
32506;DHT22;18955;51.224;8.482;2023-03-01T03:30:26;5.40;65.00
32506;DHT22;18955;51.224;8.482;2023-03-01T03:32:52;5.60;64.40
32506;DHT22;18955;51.224;8.482;2023-03-01T03:35:30;5.60;64.40
32506;DHT22;18955;51.224;8.482;2023-03-01T03:38:01;5.30;65.00
32506;DHT22;18955;51.224;8.482;2023-03-01T03:40:32;5.50;64.50
32506;DHT22;18955;51.224;8.482;2023-03-01T03:42:59;5.60;64.30
32506;DHT22;18955;51.224;8.482;2023-03-01T03:45:25;5.30;64.70
32506;DHT22;18955;51.224;8.482;2023-03-01T03:47:51;5.40;64.60
32506;DHT22;18955;51.224;8.482;2023-03-01T03:50:18;5.60;63.90
32506;DHT22;18955;51.224;8.482;2023-03-01T03:52:44;5.40;64.30
32506;DHT22;18955;51.224;8.482;2023-03-01T03:55:12;5.30;64.90
32506;DHT22;18955;51.224;8.482;2023-03-01T03:57:41;5.60;64.00
32506;DHT22;18955;51.224;8.482;2023-03-01T04:00:11;5.50;64.20
32506;DHT22;18955;51.224;8.482;2023-03-01T04:02:42;5.30;64.70
32506;DHT22;18955;51.224;8.482;2023-03-01T04:05:10;5.60;64.10
32506;DHT22;18955;51.224;8.482;2023-03-01T04:07:37;5.50;64.10
32506;DHT22;18955;51.224;8.482;2023-03-01T04:10:05;5.30;64.80
32506;DHT22;18955;51.224;8.482;2023-03-01T04:12:33;5.50;64.40
32506;DHT22;18955;51.224;8.482;2023-03-01T04:15:05;5.50;64.00
32506;DHT22;18955;51.224;8.482;2023-03-01T04:17:42;5.30;64.60
32506;DHT22;18955;51.224;8.482;2023-03-01T04:20:11;5.40;64.60
32506;DHT22;18955;51.224;8.482;2023-03-01T04:22:38;5.50;63.90
32506;DHT22;18955;51.224;8.482;2023-03-01T04:25:04;5.30;64.50
32506;DHT22;18955;51.224;8.482;2023-03-01T04:27:36;5.30;64.80
32506;DHT22;18955;51.224;8.482;2023-03-01T04:30:06;5.50;63.90
32506;DHT22;18955;51.224;8.482;2023-03-01T04:32:33;5.40;64.30
32506;DHT22;18955;51.224;8.482;2023-03-01T04:34:59;5.20;64.70
32506;DHT22;18955;51.224;8.482;2023-03-01T04:37:26;5.50;64.00
32506;DHT22;18955;51.224;8.482;2023-03-01T04:39:52;5.40;64.00
32506;DHT22;18955;51.224;8.482;2023-03-01T04:42:19;5.20;64.60
32506;DHT22;18955;51.224;8.482;2023-03-01T04:44:45;5.40;64.40
32506;DHT22;18955;51.224;8.482;2023-03-01T04:47:12;5.40;64.10
32506;DHT22;18955;51.224;8.482;2023-03-01T04:49:38;5.30;64.80
32506;DHT22;18955;51.224;8.482;2023-03-01T04:52:05;5.30;64.70
32506;DHT22;18955;51.224;8.482;2023-03-01T04:54:32;5.40;63.90
32506;DHT22;18955;51.224;8.482;2023-03-01T04:56:59;5.20;64.30
32506;DHT22;18955;51.224;8.482;2023-03-01T04:59:25;5.20;64.70
32506;DHT22;18955;51.224;8.482;2023-03-01T05:01:53;5.50;64.00
32506;DHT22;18955;51.224;8.482;2023-03-01T05:04:24;5.30;64.20
32506;DHT22;18955;51.224;8.482;2023-03-01T05:06:51;5.20;64.80
32506;DHT22;18955;51.224;8.482;2023-03-01T05:09:19;5.40;64.10
32506;DHT22;18955;51.224;8.482;2023-03-01T05:11:45;5.30;64.00
32506;DHT22;18955;51.224;8.482;2023-03-01T05:14:12;5.10;64.60
32506;DHT22;18955;51.224;8.482;2023-03-01T05:16:38;5.30;64.30
32506;DHT22;18955;51.224;8.482;2023-03-01T05:19:04;5.50;63.60
32506;DHT22;18955;51.224;8.482;2023-03-01T05:21:42;5.30;64.10
32506;DHT22;18955;51.224;8.482;2023-03-01T05:24:28;5.20;64.60
32506;DHT22;18955;51.224;8.482;2023-03-01T05:26:54;5.50;63.50
32506;DHT22;18955;51.224;8.482;2023-03-01T05:29:22;5.30;63.90
32506;DHT22;18955;51.224;8.482;2023-03-01T05:31:55;5.20;64.40
32506;DHT22;18955;51.224;8.482;2023-03-01T05:34:26;5.40;63.60
32506;DHT22;18955;51.224;8.482;2023-03-01T05:36:53;5.30;63.60
32506;DHT22;18955;51.224;8.482;2023-03-01T05:39:24;5.10;64.10
32506;DHT22;18955;51.224;8.482;2023-03-01T05:41:56;5.40;63.70
32506;DHT22;18955;51.224;8.482;2023-03-01T05:44:23;5.40;63.30
32506;DHT22;18955;51.224;8.482;2023-03-01T05:46:49;5.20;64.20
32506;DHT22;18955;51.224;8.482;2023-03-01T05:49:16;5.20;64.10
32506;DHT22;18955;51.224;8.482;2023-03-01T05:51:43;5.40;63.30
32506;DHT22;18955;51.224;8.482;2023-03-01T05:54:13;5.20;63.70
32506;DHT22;18955;51.224;8.482;2023-03-01T05:56:39;5.10;64.20
32506;DHT22;18955;51.224;8.482;2023-03-01T05:59:06;5.40;63.30
32506;DHT22;18955;51.224;8.482;2023-03-01T06:01:33;5.30;63.60
32506;DHT22;18955;51.224;8.482;2023-03-01T06:04:00;5.10;64.20
32506;DHT22;18955;51.224;8.482;2023-03-01T06:06:26;5.30;63.50
32506;DHT22;18955;51.224;8.482;2023-03-01T06:08:53;5.30;63.40
32506;DHT22;18955;51.224;8.482;2023-03-01T06:11:20;5.10;64.10
32506;DHT22;18955;51.224;8.482;2023-03-01T06:13:47;5.20;63.80
32506;DHT22;18955;51.224;8.482;2023-03-01T06:16:14;5.40;63.10
32506;DHT22;18955;51.224;8.482;2023-03-01T06:18:40;5.10;63.70
32506;DHT22;18955;51.224;8.482;2023-03-01T06:21:08;5.10;64.10
32506;DHT22;18955;51.224;8.482;2023-03-01T06:23:35;5.40;63.20
32506;DHT22;18955;51.224;8.482;2023-03-01T06:26:04;5.20;63.70
32506;DHT22;18955;51.224;8.482;2023-03-01T06:28:30;5.00;64.30
32506;DHT22;18955;51.224;8.482;2023-03-01T06:30:56;5.30;63.50
32506;DHT22;18955;51.224;8.482;2023-03-01T06:33:23;5.20;63.60
32506;DHT22;18955;51.224;8.482;2023-03-01T06:35:51;5.00;64.30
32506;DHT22;18955;51.224;8.482;2023-03-01T06:38:17;5.20;63.80
32506;DHT22;18955;51.224;8.482;2023-03-01T06:40:45;5.30;63.40
32506;DHT22;18955;51.224;8.482;2023-03-01T06:43:17;5.00;64.10
32506;DHT22;18955;51.224;8.482;2023-03-01T06:45:43;5.20;64.00
32506;DHT22;18955;51.224;8.482;2023-03-01T06:48:09;5.30;63.30
32506;DHT22;18955;51.224;8.482;2023-03-01T06:50:35;5.10;63.80
32506;DHT22;18955;51.224;8.482;2023-03-01T06:53:02;5.10;64.30
32506;DHT22;18955;51.224;8.482;2023-03-01T06:55:29;5.30;63.50
32506;DHT22;18955;51.224;8.482;2023-03-01T06:57:56;5.20;64.00
32506;DHT22;18955;51.224;8.482;2023-03-01T07:00:23;5.00;64.50
32506;DHT22;18955;51.224;8.482;2023-03-01T07:02:50;5.30;63.70
32506;DHT22;18955;51.224;8.482;2023-03-01T07:05:16;5.10;63.80
32506;DHT22;18955;51.224;8.482;2023-03-01T07:07:42;5.00;64.30
32506;DHT22;18955;51.224;8.482;2023-03-01T07:10:09;5.20;63.80
32506;DHT22;18955;51.224;8.482;2023-03-01T07:12:36;5.20;63.50
32506;DHT22;18955;51.224;8.482;2023-03-01T07:15:02;5.00;64.30
32506;DHT22;18955;51.224;8.482;2023-03-01T07:17:28;5.10;64.10
32506;DHT22;18955;51.224;8.482;2023-03-01T07:19:55;5.30;63.20
32506;DHT22;18955;51.224;8.482;2023-03-01T07:22:21;5.10;63.80
32506;DHT22;18955;51.224;8.482;2023-03-01T07:24:48;5.00;64.30
32506;DHT22;18955;51.224;8.482;2023-03-01T07:27:14;5.20;63.30
32506;DHT22;18955;51.224;8.482;2023-03-01T07:29:40;5.10;63.50
32506;DHT22;18955;51.224;8.482;2023-03-01T07:32:06;5.00;64.20
32506;DHT22;18955;51.224;8.482;2023-03-01T07:34:33;5.20;63.50
32506;DHT22;18955;51.224;8.482;2023-03-01T07:36:59;5.10;63.40
32506;DHT22;18955;51.224;8.482;2023-03-01T07:39:25;5.00;64.10
32506;DHT22;18955;51.224;8.482;2023-03-01T07:41:52;5.20;63.80
32506;DHT22;18955;51.224;8.482;2023-03-01T07:44:21;5.30;63.30
32506;DHT22;18955;51.224;8.482;2023-03-01T07:46:48;5.10;63.80
32506;DHT22;18955;51.224;8.482;2023-03-01T07:49:14;5.20;64.20
32506;DHT22;18955;51.224;8.482;2023-03-01T07:51:40;5.50;62.80
32506;DHT22;18955;51.224;8.482;2023-03-01T07:54:07;5.30;63.40
32506;DHT22;18955;51.224;8.482;2023-03-01T07:56:34;5.30;63.80
32506;DHT22;18955;51.224;8.482;2023-03-01T07:59:00;5.60;62.90
32506;DHT22;18955;51.224;8.482;2023-03-01T08:01:26;5.50;63.30
32506;DHT22;18955;51.224;8.482;2023-03-01T08:03:52;5.40;63.80
32506;DHT22;18955;51.224;8.482;2023-03-01T08:06:19;5.60;63.10
32506;DHT22;18955;51.224;8.482;2023-03-01T08:08:45;5.60;63.30
32506;DHT22;18955;51.224;8.482;2023-03-01T08:11:13;5.40;64.00
32506;DHT22;18955;51.224;8.482;2023-03-01T08:13:40;5.70;63.80
32506;DHT22;18955;51.224;8.482;2023-03-01T08:16:10;5.60;63.00
32506;DHT22;18955;51.224;8.482;2023-03-01T08:18:37;5.50;63.80
32506;DHT22;18955;51.224;8.482;2023-03-01T08:21:05;5.60;63.50
32506;DHT22;18955;51.224;8.482;2023-03-01T08:23:32;5.80;62.80
32506;DHT22;18955;51.224;8.482;2023-03-01T08:26:10;5.60;63.50
32506;DHT22;18955;51.224;8.482;2023-03-01T08:28:38;5.60;63.90
32506;DHT22;18955;51.224;8.482;2023-03-01T08:31:24;5.90;63.00
32506;DHT22;18955;51.224;8.482;2023-03-01T08:33:55;5.70;63.50
32506;DHT22;18955;51.224;8.482;2023-03-01T08:36:32;5.60;63.70
32506;DHT22;18955;51.224;8.482;2023-03-01T08:39:00;5.90;63.00
32506;DHT22;18955;51.224;8.482;2023-03-01T08:41:27;5.80;63.20
32506;DHT22;18955;51.224;8.482;2023-03-01T08:43:54;5.60;64.00
32506;DHT22;18955;51.224;8.482;2023-03-01T08:46:29;5.70;63.60
32506;DHT22;18955;51.224;8.482;2023-03-01T08:48:55;5.80;63.30
32506;DHT22;18955;51.224;8.482;2023-03-01T08:51:23;5.70;64.20
32506;DHT22;18955;51.224;8.482;2023-03-01T08:53:49;5.70;64.20
32506;DHT22;18955;51.224;8.482;2023-03-01T08:56:16;5.80;63.40
32506;DHT22;18955;51.224;8.482;2023-03-01T08:58:47;5.70;64.20
32506;DHT22;18955;51.224;8.482;2023-03-01T09:01:18;5.60;64.50
32506;DHT22;18955;51.224;8.482;2023-03-01T09:03:45;5.90;63.60
32506;DHT22;18955;51.224;8.482;2023-03-01T09:06:11;5.80;64.00
32506;DHT22;18955;51.224;8.482;2023-03-01T09:08:40;5.60;64.70
32506;DHT22;18955;51.224;8.482;2023-03-01T09:11:09;5.80;64.20
32506;DHT22;18955;51.224;8.482;2023-03-01T09:13:36;5.80;64.00
32506;DHT22;18955;51.224;8.482;2023-03-01T09:16:05;5.60;65.30
32506;DHT22;18955;51.224;8.482;2023-03-01T09:18:32;5.70;64.60
32506;DHT22;18955;51.224;8.482;2023-03-01T09:21:17;5.90;63.80
32506;DHT22;18955;51.224;8.482;2023-03-01T09:23:46;5.70;64.40
32506;DHT22;18955;51.224;8.482;2023-03-01T09:26:15;5.70;64.80
32506;DHT22;18955;51.224;8.482;2023-03-01T09:28:46;6.00;63.70
32506;DHT22;18955;51.224;8.482;2023-03-01T09:31:13;5.80;64.10
32506;DHT22;18955;51.224;8.482;2023-03-01T09:33:41;5.60;64.50
32506;DHT22;18955;51.224;8.482;2023-03-01T09:36:13;5.90;63.90
32506;DHT22;18955;51.224;8.482;2023-03-01T09:38:39;5.90;63.70
32506;DHT22;18955;51.224;8.482;2023-03-01T09:41:31;5.70;64.50
32506;DHT22;18955;51.224;8.482;2023-03-01T09:46:48;5.90;63.50
32506;DHT22;18955;51.224;8.482;2023-03-01T09:49:19;5.80;64.30
32506;DHT22;18955;51.224;8.482;2023-03-01T09:51:55;5.70;64.70
32506;DHT22;18955;51.224;8.482;2023-03-01T09:54:21;5.90;63.90
32506;DHT22;18955;51.224;8.482;2023-03-01T09:59:57;5.70;65.10
32506;DHT22;18955;51.224;8.482;2023-03-01T10:10:38;6.10;64.40
32506;DHT22;18955;51.224;8.482;2023-03-01T10:13:22;6.00;64.60
32506;DHT22;18955;51.224;8.482;2023-03-01T10:16:03;5.80;65.40
32506;DHT22;18955;51.224;8.482;2023-03-01T10:18:33;6.10;64.90
32506;DHT22;18955;51.224;8.482;2023-03-01T10:21:13;6.20;64.50
32506;DHT22;18955;51.224;8.482;2023-03-01T10:23:41;5.90;65.20
32506;DHT22;18955;51.224;8.482;2023-03-01T10:26:35;6.10;65.30
32506;DHT22;18955;51.224;8.482;2023-03-01T10:29:10;6.30;64.50
32506;DHT22;18955;51.224;8.482;2023-03-01T10:34:29;6.10;65.50
32506;DHT22;18955;51.224;8.482;2023-03-01T10:37:14;6.40;64.50
32506;DHT22;18955;51.224;8.482;2023-03-01T10:42:40;6.20;65.60
32506;DHT22;18955;51.224;8.482;2023-03-01T10:45:16;6.50;64.90
32506;DHT22;18955;51.224;8.482;2023-03-01T10:47:43;6.40;65.10
32506;DHT22;18955;51.224;8.482;2023-03-01T10:50:20;6.30;65.90
32506;DHT22;18955;51.224;8.482;2023-03-01T10:52:59;6.60;65.50
32506;DHT22;18955;51.224;8.482;2023-03-01T10:55:44;6.60;65.00
32506;DHT22;18955;51.224;8.482;2023-03-01T10:58:21;6.40;66.00
32506;DHT22;18955;51.224;8.482;2023-03-01T11:03:30;6.80;65.30
32506;DHT22;18955;51.224;8.482;2023-03-01T11:06:00;6.60;65.50
32506;DHT22;18955;51.224;8.482;2023-03-01T11:08:35;6.50;66.10
32506;DHT22;18955;51.224;8.482;2023-03-01T11:16:38;6.60;66.00
32506;DHT22;18955;51.224;8.482;2023-03-01T11:24:47;6.80;65.80
32506;DHT22;18955;51.224;8.482;2023-03-01T11:27:31;6.90;66.00
32506;DHT22;18955;51.224;8.482;2023-03-01T11:32:27;6.90;65.70
32506;DHT22;18955;51.224;8.482;2023-03-01T11:34:59;6.80;66.50
32506;DHT22;18955;51.224;8.482;2023-03-01T11:37:40;7.10;65.80
32506;DHT22;18955;51.224;8.482;2023-03-01T11:40:18;7.10;65.70
32506;DHT22;18955;51.224;8.482;2023-03-01T11:45:20;7.10;66.40
32506;DHT22;18955;51.224;8.482;2023-03-01T11:50:39;7.10;66.20
32506;DHT22;18955;51.224;8.482;2023-03-01T11:59:13;7.20;66.20
32506;DHT22;18955;51.224;8.482;2023-03-01T12:09:57;7.10;66.90
32506;DHT22;18955;51.224;8.482;2023-03-01T12:21:27;7.10;66.90
32506;DHT22;18955;51.224;8.482;2023-03-01T12:34:49;7.50;66.00
32506;DHT22;18955;51.224;8.482;2023-03-01T12:37:46;7.40;66.90
32506;DHT22;18955;51.224;8.482;2023-03-01T12:46:25;7.50;67.00
32506;DHT22;18955;51.224;8.482;2023-03-01T12:51:59;7.70;66.30
32506;DHT22;18955;51.224;8.482;2023-03-01T12:54:31;7.60;66.50
32506;DHT22;18955;51.224;8.482;2023-03-01T12:57:14;7.50;67.80
32506;DHT22;18955;51.224;8.482;2023-03-01T12:59:59;7.70;67.10
32506;DHT22;18955;51.224;8.482;2023-03-01T13:02:49;7.90;66.50
32506;DHT22;18955;51.224;8.482;2023-03-01T13:05:37;7.70;67.50
32506;DHT22;18955;51.224;8.482;2023-03-01T13:11:03;8.00;66.50
32506;DHT22;18955;51.224;8.482;2023-03-01T13:13:30;8.00;66.70
32506;DHT22;18955;51.224;8.482;2023-03-01T13:15:57;7.80;67.70
32506;DHT22;18955;51.224;8.482;2023-03-01T13:18:44;8.00;67.10
32506;DHT22;18955;51.224;8.482;2023-03-01T13:21:10;8.30;66.10
32506;DHT22;18955;51.224;8.482;2023-03-01T13:23:38;8.20;66.90
32506;DHT22;18955;51.224;8.482;2023-03-01T13:38:59;8.60;66.70
32506;DHT22;18955;51.224;8.482;2023-03-01T13:41:49;8.60;66.30
32506;DHT22;18955;51.224;8.482;2023-03-01T13:49:32;8.70;66.30
32506;DHT22;18955;51.224;8.482;2023-03-01T13:52:02;8.80;66.30
32506;DHT22;18955;51.224;8.482;2023-03-01T13:54:31;8.60;66.80
32506;DHT22;18955;51.224;8.482;2023-03-01T13:57:01;8.60;67.00
32506;DHT22;18955;51.224;8.482;2023-03-01T13:59:28;8.80;66.50
32506;DHT22;18955;51.224;8.482;2023-03-01T14:01:59;8.80;66.60
32506;DHT22;18955;51.224;8.482;2023-03-01T14:04:31;8.70;66.90
32506;DHT22;18955;51.224;8.482;2023-03-01T14:07:21;8.60;67.50
32506;DHT22;18955;51.224;8.482;2023-03-01T14:09:56;9.00;66.70
32506;DHT22;18955;51.224;8.482;2023-03-01T14:15:32;8.90;67.00
32506;DHT22;18955;51.224;8.482;2023-03-01T14:20:47;9.20;66.70
32506;DHT22;18955;51.224;8.482;2023-03-01T14:23:22;9.20;66.60
32506;DHT22;18955;51.224;8.482;2023-03-01T14:25:52;9.10;66.80
32506;DHT22;18955;51.224;8.482;2023-03-01T14:28:26;9.00;67.10
32506;DHT22;18955;51.224;8.482;2023-03-01T14:30:56;9.40;66.10
32506;DHT22;18955;51.224;8.482;2023-03-01T14:36:04;9.30;66.30
32506;DHT22;18955;51.224;8.482;2023-03-01T14:38:40;9.20;67.30
32506;DHT22;18955;51.224;8.482;2023-03-01T14:41:13;9.20;67.10
32506;DHT22;18955;51.224;8.482;2023-03-01T14:43:44;9.30;67.00
32506;DHT22;18955;51.224;8.482;2023-03-01T14:46:38;9.20;68.10
32506;DHT22;18955;51.224;8.482;2023-03-01T14:49:21;9.00;68.00
32506;DHT22;18955;51.224;8.482;2023-03-01T14:51:59;9.00;68.20
32506;DHT22;18955;51.224;8.482;2023-03-01T14:57:00;9.00;68.50
32506;DHT22;18955;51.224;8.482;2023-03-01T14:59:27;8.90;68.80
32506;DHT22;18955;51.224;8.482;2023-03-01T15:01:57;8.80;68.50
32506;DHT22;18955;51.224;8.482;2023-03-01T15:04:25;9.10;67.60
32506;DHT22;18955;51.224;8.482;2023-03-01T15:06:53;9.00;67.90
32506;DHT22;18955;51.224;8.482;2023-03-01T15:09:21;8.90;68.90
32506;DHT22;18955;51.224;8.482;2023-03-01T15:11:47;8.70;69.20
32506;DHT22;18955;51.224;8.482;2023-03-01T15:14:42;9.00;68.20
32506;DHT22;18955;51.224;8.482;2023-03-01T15:19:54;8.90;69.20
32506;DHT22;18955;51.224;8.482;2023-03-01T15:22:20;8.70;69.50
32506;DHT22;18955;51.224;8.482;2023-03-01T15:24:49;8.90;68.50
32506;DHT22;18955;51.224;8.482;2023-03-01T15:27:21;9.10;67.30
32506;DHT22;18955;51.224;8.482;2023-03-01T15:29:59;8.90;68.70
32506;DHT22;18955;51.224;8.482;2023-03-01T15:32:28;8.70;69.40
32506;DHT22;18955;51.224;8.482;2023-03-01T15:34:57;8.70;69.10
32506;DHT22;18955;51.224;8.482;2023-03-01T15:37:46;9.00;67.50
32506;DHT22;18955;51.224;8.482;2023-03-01T15:40:28;8.90;68.70
32506;DHT22;18955;51.224;8.482;2023-03-01T15:43:02;8.70;69.40
32506;DHT22;18955;51.224;8.482;2023-03-01T15:45:30;8.70;69.20
32506;DHT22;18955;51.224;8.482;2023-03-01T15:48:04;8.90;68.30
32506;DHT22;18955;51.224;8.482;2023-03-01T15:50:34;8.90;68.90
32506;DHT22;18955;51.224;8.482;2023-03-01T15:53:05;8.70;69.50
32506;DHT22;18955;51.224;8.482;2023-03-01T15:55:35;8.60;69.60
32506;DHT22;18955;51.224;8.482;2023-03-01T15:58:15;8.90;68.40
32506;DHT22;18955;51.224;8.482;2023-03-01T16:00:42;8.90;68.70
32506;DHT22;18955;51.224;8.482;2023-03-01T16:03:11;8.70;69.30
32506;DHT22;18955;51.224;8.482;2023-03-01T16:05:38;8.60;69.90
32506;DHT22;18955;51.224;8.482;2023-03-01T16:08:05;8.70;69.10
32506;DHT22;18955;51.224;8.482;2023-03-01T16:10:33;8.90;68.50
32506;DHT22;18955;51.224;8.482;2023-03-01T16:12:59;8.80;69.00
32506;DHT22;18955;51.224;8.482;2023-03-01T16:15:29;8.60;69.70
32506;DHT22;18955;51.224;8.482;2023-03-01T16:17:56;8.50;69.40
32506;DHT22;18955;51.224;8.482;2023-03-01T16:20:24;8.80;68.00
32506;DHT22;18955;51.224;8.482;2023-03-01T16:22:51;8.80;68.60
32506;DHT22;18955;51.224;8.482;2023-03-01T16:25:19;8.60;69.10
32506;DHT22;18955;51.224;8.482;2023-03-01T16:27:49;8.50;69.70
32506;DHT22;18955;51.224;8.482;2023-03-01T16:30:19;8.70;68.40
32506;DHT22;18955;51.224;8.482;2023-03-01T16:32:46;8.90;67.70
32506;DHT22;18955;51.224;8.482;2023-03-01T16:35:14;8.70;68.90
32506;DHT22;18955;51.224;8.482;2023-03-01T16:37:41;8.50;69.40
32506;DHT22;18955;51.224;8.482;2023-03-01T16:40:17;8.50;68.80
32506;DHT22;18955;51.224;8.482;2023-03-01T16:42:44;8.80;67.80
32506;DHT22;18955;51.224;8.482;2023-03-01T16:45:11;8.70;68.40
32506;DHT22;18955;51.224;8.482;2023-03-01T16:47:37;8.50;69.00
32506;DHT22;18955;51.224;8.482;2023-03-01T16:50:04;8.40;69.10
32506;DHT22;18955;51.224;8.482;2023-03-01T16:52:30;8.60;68.00
32506;DHT22;18955;51.224;8.482;2023-03-01T16:54:57;8.70;67.90
32506;DHT22;18955;51.224;8.482;2023-03-01T16:57:23;8.50;68.50
32506;DHT22;18955;51.224;8.482;2023-03-01T16:59:52;8.40;69.20
32506;DHT22;18955;51.224;8.482;2023-03-01T17:02:22;8.40;68.60
32506;DHT22;18955;51.224;8.482;2023-03-01T17:04:52;8.60;67.60
32506;DHT22;18955;51.224;8.482;2023-03-01T17:07:19;8.50;68.30
32506;DHT22;18955;51.224;8.482;2023-03-01T17:09:47;8.40;68.80
32506;DHT22;18955;51.224;8.482;2023-03-01T17:12:14;8.30;68.50
32506;DHT22;18955;51.224;8.482;2023-03-01T17:14:41;8.60;68.00
32506;DHT22;18955;51.224;8.482;2023-03-01T17:17:08;8.60;67.80
32506;DHT22;18955;51.224;8.482;2023-03-01T17:19:35;8.40;68.40
32506;DHT22;18955;51.224;8.482;2023-03-01T17:22:06;8.20;69.00
32506;DHT22;18955;51.224;8.482;2023-03-01T17:24:33;8.40;68.20
32506;DHT22;18955;51.224;8.482;2023-03-01T17:27:00;8.50;67.60
32506;DHT22;18955;51.224;8.482;2023-03-01T17:29:26;8.40;67.80
32506;DHT22;18955;51.224;8.482;2023-03-01T17:31:53;8.20;68.60
32506;DHT22;18955;51.224;8.482;2023-03-01T17:34:24;8.20;68.40
32506;DHT22;18955;51.224;8.482;2023-03-01T17:36:51;8.50;67.20
32506;DHT22;18955;51.224;8.482;2023-03-01T17:39:18;8.40;67.60
32506;DHT22;18955;51.224;8.482;2023-03-01T17:41:51;8.20;68.30
32506;DHT22;18955;51.224;8.482;2023-03-01T17:44:17;8.10;68.40
32506;DHT22;18955;51.224;8.482;2023-03-01T17:46:44;8.30;67.60
32506;DHT22;18955;51.224;8.482;2023-03-01T17:49:10;8.40;67.20
32506;DHT22;18955;51.224;8.482;2023-03-01T17:51:37;8.20;67.60
32506;DHT22;18955;51.224;8.482;2023-03-01T17:54:04;8.00;68.50
32506;DHT22;18955;51.224;8.482;2023-03-01T17:56:31;8.10;68.40
32506;DHT22;18955;51.224;8.482;2023-03-01T17:58:59;8.30;66.90
32506;DHT22;18955;51.224;8.482;2023-03-01T18:01:26;8.30;67.50
32506;DHT22;18955;51.224;8.482;2023-03-01T18:03:53;8.10;68.20
32506;DHT22;18955;51.224;8.482;2023-03-01T18:06:25;7.90;68.00
32506;DHT22;18955;51.224;8.482;2023-03-01T18:08:51;8.20;67.00
32506;DHT22;18955;51.224;8.482;2023-03-01T18:11:21;8.20;67.10
32506;DHT22;18955;51.224;8.482;2023-03-01T18:13:49;8.10;67.80